sensor_id;sensor_type;location;lat;lon;timestamp;P1;durP1;ratioP1;P2;durP2;ratioP2
16294;SDS011;8255;49.560;8.244;2023-06-10T00:00:23;9.00;;;8.18;;
16294;SDS011;8255;49.560;8.244;2023-06-10T00:02:50;8.80;;;8.00;;
16294;SDS011;8255;49.560;8.244;2023-06-10T00:05:17;9.43;;;8.43;;
16294;SDS011;8255;49.560;8.244;2023-06-10T00:07:46;8.90;;;8.20;;
16294;SDS011;8255;49.560;8.244;2023-06-10T00:10:13;9.00;;;8.23;;
16294;SDS011;8255;49.560;8.244;2023-06-10T00:12:39;9.40;;;8.60;;
16294;SDS011;8255;49.560;8.244;2023-06-10T00:15:07;8.30;;;7.70;;
16294;SDS011;8255;49.560;8.244;2023-06-10T00:17:34;8.40;;;7.70;;
16294;SDS011;8255;49.560;8.244;2023-06-10T00:20:04;8.85;;;8.25;;
16294;SDS011;8255;49.560;8.244;2023-06-10T00:22:35;8.70;;;7.90;;
16294;SDS011;8255;49.560;8.244;2023-06-10T00:25:03;8.65;;;7.85;;
16294;SDS011;8255;49.560;8.244;2023-06-10T00:27:29;9.43;;;8.50;;
16294;SDS011;8255;49.560;8.244;2023-06-10T00:30:00;8.85;;;8.02;;
16294;SDS011;8255;49.560;8.244;2023-06-10T00:32:26;8.65;;;7.85;;
16294;SDS011;8255;49.560;8.244;2023-06-10T00:34:54;8.60;;;7.60;;
16294;SDS011;8255;49.560;8.244;2023-06-10T00:37:20;8.63;;;8.02;;
16294;SDS011;8255;49.560;8.244;2023-06-10T00:39:49;8.75;;;7.85;;
16294;SDS011;8255;49.560;8.244;2023-06-10T00:42:16;7.97;;;7.40;;
16294;SDS011;8255;49.560;8.244;2023-06-10T00:44:43;8.43;;;7.82;;
16294;SDS011;8255;49.560;8.244;2023-06-10T00:47:09;8.70;;;8.00;;
16294;SDS011;8255;49.560;8.244;2023-06-10T00:49:35;8.20;;;7.60;;
16294;SDS011;8255;49.560;8.244;2023-06-10T00:52:02;8.35;;;7.53;;
16294;SDS011;8255;49.560;8.244;2023-06-10T00:54:29;8.63;;;7.78;;
16294;SDS011;8255;49.560;8.244;2023-06-10T00:56:57;8.77;;;8.05;;
16294;SDS011;8255;49.560;8.244;2023-06-10T00:59:24;8.13;;;7.32;;
16294;SDS011;8255;49.560;8.244;2023-06-10T01:01:51;8.40;;;7.63;;
16294;SDS011;8255;49.560;8.244;2023-06-10T01:04:18;8.75;;;8.02;;
16294;SDS011;8255;49.560;8.244;2023-06-10T01:06:48;8.93;;;7.90;;
16294;SDS011;8255;49.560;8.244;2023-06-10T01:09:21;8.40;;;7.70;;
16294;SDS011;8255;49.560;8.244;2023-06-10T01:11:50;8.65;;;7.93;;
16294;SDS011;8255;49.560;8.244;2023-06-10T01:14:20;8.32;;;7.63;;
16294;SDS011;8255;49.560;8.244;2023-06-10T01:16:47;8.80;;;8.10;;
16294;SDS011;8255;49.560;8.244;2023-06-10T01:19:15;8.88;;;8.27;;
16294;SDS011;8255;49.560;8.244;2023-06-10T01:21:44;8.45;;;7.78;;
16294;SDS011;8255;49.560;8.244;2023-06-10T01:24:13;8.95;;;8.05;;
16294;SDS011;8255;49.560;8.244;2023-06-10T01:26:43;9.02;;;8.10;;
16294;SDS011;8255;49.560;8.244;2023-06-10T01:29:11;8.57;;;7.97;;
16294;SDS011;8255;49.560;8.244;2023-06-10T01:31:41;9.07;;;8.35;;
16294;SDS011;8255;49.560;8.244;2023-06-10T01:34:10;9.20;;;8.40;;
16294;SDS011;8255;49.560;8.244;2023-06-10T01:36:37;8.70;;;8.00;;
16294;SDS011;8255;49.560;8.244;2023-06-10T01:39:05;11.60;;;8.25;;
16294;SDS011;8255;49.560;8.244;2023-06-10T01:41:32;8.48;;;7.82;;
16294;SDS011;8255;49.560;8.244;2023-06-10T01:43:58;10.30;;;8.00;;
16294;SDS011;8255;49.560;8.244;2023-06-10T01:46:25;8.43;;;7.72;;
16294;SDS011;8255;49.560;8.244;2023-06-10T01:48:51;9.00;;;8.20;;
16294;SDS011;8255;49.560;8.244;2023-06-10T01:51:18;8.63;;;7.93;;
16294;SDS011;8255;49.560;8.244;2023-06-10T01:53:44;8.40;;;7.63;;
16294;SDS011;8255;49.560;8.244;2023-06-10T01:56:12;8.30;;;7.68;;
16294;SDS011;8255;49.560;8.244;2023-06-10T01:58:41;8.40;;;7.70;;
16294;SDS011;8255;49.560;8.244;2023-06-10T02:01:09;8.38;;;7.68;;
16294;SDS011;8255;49.560;8.244;2023-06-10T02:03:36;8.35;;;7.63;;
16294;SDS011;8255;49.560;8.244;2023-06-10T02:06:02;9.27;;;8.23;;
16294;SDS011;8255;49.560;8.244;2023-06-10T02:08:29;9.05;;;8.25;;
16294;SDS011;8255;49.560;8.244;2023-06-10T02:10:55;8.63;;;7.90;;
16294;SDS011;8255;49.560;8.244;2023-06-10T02:13:23;8.18;;;7.57;;
16294;SDS011;8255;49.560;8.244;2023-06-10T02:15:53;8.32;;;7.63;;
16294;SDS011;8255;49.560;8.244;2023-06-10T02:18:19;8.23;;;7.60;;
16294;SDS011;8255;49.560;8.244;2023-06-10T02:20:47;8.93;;;8.20;;
16294;SDS011;8255;49.560;8.244;2023-06-10T02:23:13;8.85;;;8.13;;
16294;SDS011;8255;49.560;8.244;2023-06-10T02:25:40;8.35;;;7.65;;
16294;SDS011;8255;49.560;8.244;2023-06-10T02:28:06;8.95;;;7.65;;
16294;SDS011;8255;49.560;8.244;2023-06-10T02:30:34;10.95;;;7.60;;
16294;SDS011;8255;49.560;8.244;2023-06-10T02:33:00;8.20;;;7.63;;
16294;SDS011;8255;49.560;8.244;2023-06-10T02:35:27;9.02;;;8.30;;
16294;SDS011;8255;49.560;8.244;2023-06-10T02:37:54;10.30;;;7.85;;
16294;SDS011;8255;49.560;8.244;2023-06-10T02:40:21;8.30;;;7.63;;
16294;SDS011;8255;49.560;8.244;2023-06-10T02:46:18;7.45;;;6.97;;
16294;SDS011;8255;49.560;8.244;2023-06-10T02:48:45;8.60;;;7.82;;
16294;SDS011;8255;49.560;8.244;2023-06-10T02:51:18;9.65;;;7.88;;
16294;SDS011;8255;49.560;8.244;2023-06-10T02:53:47;8.05;;;7.45;;
16294;SDS011;8255;49.560;8.244;2023-06-10T02:58:41;8.23;;;7.60;;
16294;SDS011;8255;49.560;8.244;2023-06-10T03:01:09;8.10;;;7.40;;
16294;SDS011;8255;49.560;8.244;2023-06-10T03:03:54;8.40;;;7.60;;
16294;SDS011;8255;49.560;8.244;2023-06-10T03:06:21;7.65;;;7.05;;
16294;SDS011;8255;49.560;8.244;2023-06-10T03:08:50;9.05;;;7.90;;
16294;SDS011;8255;49.560;8.244;2023-06-10T03:11:18;8.30;;;7.60;;
16294;SDS011;8255;49.560;8.244;2023-06-10T03:13:46;8.90;;;8.00;;
16294;SDS011;8255;49.560;8.244;2023-06-10T03:16:15;9.55;;;7.40;;
16294;SDS011;8255;49.560;8.244;2023-06-10T03:18:42;8.35;;;7.50;;
16294;SDS011;8255;49.560;8.244;2023-06-10T03:21:10;9.15;;;7.35;;
16294;SDS011;8255;49.560;8.244;2023-06-10T03:23:37;8.73;;;7.88;;
16294;SDS011;8255;49.560;8.244;2023-06-10T03:26:04;8.20;;;7.38;;
16294;SDS011;8255;49.560;8.244;2023-06-10T03:28:32;8.40;;;7.70;;
16294;SDS011;8255;49.560;8.244;2023-06-10T03:30:59;7.97;;;7.28;;
16294;SDS011;8255;49.560;8.244;2023-06-10T03:33:27;8.13;;;7.43;;
16294;SDS011;8255;49.560;8.244;2023-06-10T03:35:55;8.52;;;7.90;;
16294;SDS011;8255;49.560;8.244;2023-06-10T03:38:24;9.00;;;7.57;;
16294;SDS011;8255;49.560;8.244;2023-06-10T03:40:52;8.60;;;7.80;;
16294;SDS011;8255;49.560;8.244;2023-06-10T03:43:19;8.57;;;7.85;;
16294;SDS011;8255;49.560;8.244;2023-06-10T03:52:06;9.85;;;7.68;;
16294;SDS011;8255;49.560;8.244;2023-06-10T03:54:34;8.98;;;7.95;;
16294;SDS011;8255;49.560;8.244;2023-06-10T03:57:01;8.68;;;8.07;;
16294;SDS011;8255;49.560;8.244;2023-06-10T03:59:29;10.57;;;7.97;;
16294;SDS011;8255;49.560;8.244;2023-06-10T04:01:55;7.78;;;7.18;;
16294;SDS011;8255;49.560;8.244;2023-06-10T04:04:22;8.15;;;7.45;;
16294;SDS011;8255;49.560;8.244;2023-06-10T04:06:49;8.40;;;7.68;;
16294;SDS011;8255;49.560;8.244;2023-06-10T04:09:16;8.77;;;7.93;;
16294;SDS011;8255;49.560;8.244;2023-06-10T04:11:44;8.35;;;7.50;;
16294;SDS011;8255;49.560;8.244;2023-06-10T04:14:12;8.10;;;7.40;;
16294;SDS011;8255;49.560;8.244;2023-06-10T04:16:39;8.30;;;7.60;;
16294;SDS011;8255;49.560;8.244;2023-06-10T04:19:07;9.20;;;7.65;;
16294;SDS011;8255;49.560;8.244;2023-06-10T04:21:34;8.48;;;7.53;;
16294;SDS011;8255;49.560;8.244;2023-06-10T04:24:01;7.82;;;7.13;;
16294;SDS011;8255;49.560;8.244;2023-06-10T04:26:29;8.30;;;7.50;;
16294;SDS011;8255;49.560;8.244;2023-06-10T04:28:56;8.20;;;7.28;;
16294;SDS011;8255;49.560;8.244;2023-06-10T04:31:23;9.32;;;7.63;;
16294;SDS011;8255;49.560;8.244;2023-06-10T04:33:50;8.35;;;7.55;;
16294;SDS011;8255;49.560;8.244;2023-06-10T04:36:16;7.90;;;7.22;;
16294;SDS011;8255;49.560;8.244;2023-06-10T04:38:42;7.80;;;7.18;;
16294;SDS011;8255;49.560;8.244;2023-06-10T04:41:09;8.48;;;7.03;;
16294;SDS011;8255;49.560;8.244;2023-06-10T04:43:36;8.15;;;7.38;;
16294;SDS011;8255;49.560;8.244;2023-06-10T04:46:04;7.72;;;7.03;;
16294;SDS011;8255;49.560;8.244;2023-06-10T04:48:31;8.57;;;7.78;;
16294;SDS011;8255;49.560;8.244;2023-06-10T04:51:00;7.88;;;7.18;;
16294;SDS011;8255;49.560;8.244;2023-06-10T04:53:26;8.95;;;7.60;;
16294;SDS011;8255;49.560;8.244;2023-06-10T04:55:53;8.32;;;7.10;;
16294;SDS011;8255;49.560;8.244;2023-06-10T04:58:20;8.33;;;7.53;;
16294;SDS011;8255;49.560;8.244;2023-06-10T05:00:46;8.35;;;7.53;;
16294;SDS011;8255;49.560;8.244;2023-06-10T05:03:14;8.25;;;7.55;;
16294;SDS011;8255;49.560;8.244;2023-06-10T05:05:40;7.93;;;7.32;;
16294;SDS011;8255;49.560;8.244;2023-06-10T05:08:07;8.27;;;7.60;;
16294;SDS011;8255;49.560;8.244;2023-06-10T05:10:33;7.60;;;6.90;;
16294;SDS011;8255;49.560;8.244;2023-06-10T05:13:00;7.65;;;6.97;;
16294;SDS011;8255;49.560;8.244;2023-06-10T05:15:26;8.50;;;7.57;;
16294;SDS011;8255;49.560;8.244;2023-06-10T05:17:52;8.20;;;7.28;;
16294;SDS011;8255;49.560;8.244;2023-06-10T05:20:20;7.32;;;6.82;;
16294;SDS011;8255;49.560;8.244;2023-06-10T05:22:47;8.10;;;7.30;;
16294;SDS011;8255;49.560;8.244;2023-06-10T05:25:13;7.88;;;7.18;;
16294;SDS011;8255;49.560;8.244;2023-06-10T05:27:39;8.98;;;7.18;;
16294;SDS011;8255;49.560;8.244;2023-06-10T05:33:35;6.97;;;6.47;;
16294;SDS011;8255;49.560;8.244;2023-06-10T05:36:21;8.27;;;7.50;;
16294;SDS011;8255;49.560;8.244;2023-06-10T05:38:47;7.78;;;7.00;;
16294;SDS011;8255;49.560;8.244;2023-06-10T05:41:14;7.47;;;6.55;;
16294;SDS011;8255;49.560;8.244;2023-06-10T05:43:40;7.65;;;6.88;;
16294;SDS011;8255;49.560;8.244;2023-06-10T05:46:07;7.63;;;7.03;;
16294;SDS011;8255;49.560;8.244;2023-06-10T05:48:33;7.93;;;7.20;;
16294;SDS011;8255;49.560;8.244;2023-06-10T05:51:00;8.30;;;6.90;;
16294;SDS011;8255;49.560;8.244;2023-06-10T05:53:27;7.35;;;6.82;;
16294;SDS011;8255;49.560;8.244;2023-06-10T05:55:54;8.63;;;6.90;;
16294;SDS011;8255;49.560;8.244;2023-06-10T05:58:22;7.05;;;6.45;;
16294;SDS011;8255;49.560;8.244;2023-06-10T06:00:49;7.28;;;6.57;;
16294;SDS011;8255;49.560;8.244;2023-06-10T06:03:15;7.40;;;6.70;;
16294;SDS011;8255;49.560;8.244;2023-06-10T06:05:42;7.32;;;6.65;;
16294;SDS011;8255;49.560;8.244;2023-06-10T06:08:09;7.10;;;6.60;;
16294;SDS011;8255;49.560;8.244;2023-06-10T06:10:37;7.82;;;7.05;;
16294;SDS011;8255;49.560;8.244;2023-06-10T06:13:03;7.30;;;6.70;;
16294;SDS011;8255;49.560;8.244;2023-06-10T06:15:29;7.40;;;6.90;;
16294;SDS011;8255;49.560;8.244;2023-06-10T06:17:56;7.97;;;6.45;;
16294;SDS011;8255;49.560;8.244;2023-06-10T06:20:22;7.88;;;7.13;;
16294;SDS011;8255;49.560;8.244;2023-06-10T06:22:49;8.20;;;6.85;;
16294;SDS011;8255;49.560;8.244;2023-06-10T06:25:15;6.88;;;6.45;;
16294;SDS011;8255;49.560;8.244;2023-06-10T06:27:43;7.55;;;6.90;;
16294;SDS011;8255;49.560;8.244;2023-06-10T06:30:09;7.13;;;6.50;;
16294;SDS011;8255;49.560;8.244;2023-06-10T06:32:36;6.60;;;6.10;;
16294;SDS011;8255;49.560;8.244;2023-06-10T06:35:03;6.82;;;6.15;;
16294;SDS011;8255;49.560;8.244;2023-06-10T06:37:32;7.15;;;6.57;;
16294;SDS011;8255;49.560;8.244;2023-06-10T06:40:13;7.43;;;6.78;;
16294;SDS011;8255;49.560;8.244;2023-06-10T06:42:39;7.30;;;6.72;;
16294;SDS011;8255;49.560;8.244;2023-06-10T06:45:16;7.55;;;6.32;;
16294;SDS011;8255;49.560;8.244;2023-06-10T06:47:42;7.10;;;6.40;;
16294;SDS011;8255;49.560;8.244;2023-06-10T06:50:09;7.38;;;6.72;;
16294;SDS011;8255;49.560;8.244;2023-06-10T06:52:35;6.75;;;6.25;;
16294;SDS011;8255;49.560;8.244;2023-06-10T06:55:02;7.35;;;6.63;;
16294;SDS011;8255;49.560;8.244;2023-06-10T06:57:28;8.18;;;6.95;;
16294;SDS011;8255;49.560;8.244;2023-06-10T06:59:55;7.40;;;6.68;;
16294;SDS011;8255;49.560;8.244;2023-06-10T07:02:23;7.85;;;6.60;;
16294;SDS011;8255;49.560;8.244;2023-06-10T07:04:50;6.03;;;5.60;;
16294;SDS011;8255;49.560;8.244;2023-06-10T07:07:16;6.65;;;6.15;;
16294;SDS011;8255;49.560;8.244;2023-06-10T07:09:43;7.10;;;6.47;;
16294;SDS011;8255;49.560;8.244;2023-06-10T07:12:09;6.30;;;5.70;;
16294;SDS011;8255;49.560;8.244;2023-06-10T07:14:36;6.43;;;6.03;;
16294;SDS011;8255;49.560;8.244;2023-06-10T07:17:02;6.80;;;6.20;;
16294;SDS011;8255;49.560;8.244;2023-06-10T07:19:30;8.25;;;6.07;;
16294;SDS011;8255;49.560;8.244;2023-06-10T07:21:56;7.88;;;6.10;;
16294;SDS011;8255;49.560;8.244;2023-06-10T07:24:23;6.35;;;5.85;;
16294;SDS011;8255;49.560;8.244;2023-06-10T07:26:50;6.22;;;5.70;;
16294;SDS011;8255;49.560;8.244;2023-06-10T07:29:16;5.90;;;5.25;;
16294;SDS011;8255;49.560;8.244;2023-06-10T07:31:43;7.32;;;5.97;;
16294;SDS011;8255;49.560;8.244;2023-06-10T07:34:10;5.90;;;5.40;;
16294;SDS011;8255;49.560;8.244;2023-06-10T07:36:37;5.55;;;5.18;;
16294;SDS011;8255;49.560;8.244;2023-06-10T07:39:04;5.90;;;5.40;;
16294;SDS011;8255;49.560;8.244;2023-06-10T07:41:31;6.55;;;5.75;;
16294;SDS011;8255;49.560;8.244;2023-06-10T07:43:59;6.03;;;5.63;;
16294;SDS011;8255;49.560;8.244;2023-06-10T07:46:25;6.20;;;5.60;;
16294;SDS011;8255;49.560;8.244;2023-06-10T07:48:53;6.65;;;5.80;;
16294;SDS011;8255;49.560;8.244;2023-06-10T07:51:20;6.07;;;5.45;;
16294;SDS011;8255;49.560;8.244;2023-06-10T07:54:30;5.90;;;5.28;;
16294;SDS011;8255;49.560;8.244;2023-06-10T07:56:56;5.47;;;5.18;;
16294;SDS011;8255;49.560;8.244;2023-06-10T07:59:23;5.95;;;5.40;;
16294;SDS011;8255;49.560;8.244;2023-06-10T08:02:08;5.53;;;5.15;;
16294;SDS011;8255;49.560;8.244;2023-06-10T08:04:50;7.25;;;5.20;;
16294;SDS011;8255;49.560;8.244;2023-06-10T08:07:17;5.55;;;5.20;;
16294;SDS011;8255;49.560;8.244;2023-06-10T08:09:45;5.80;;;5.40;;
16294;SDS011;8255;49.560;8.244;2023-06-10T08:12:12;9.07;;;4.95;;
16294;SDS011;8255;49.560;8.244;2023-06-10T08:14:40;5.28;;;4.97;;
16294;SDS011;8255;49.560;8.244;2023-06-10T08:17:07;5.80;;;5.10;;
16294;SDS011;8255;49.560;8.244;2023-06-10T08:19:33;5.40;;;5.10;;
16294;SDS011;8255;49.560;8.244;2023-06-10T08:22:08;5.68;;;5.18;;
16294;SDS011;8255;49.560;8.244;2023-06-10T08:24:35;6.13;;;5.30;;
16294;SDS011;8255;49.560;8.244;2023-06-10T08:27:03;5.60;;;5.10;;
16294;SDS011;8255;49.560;8.244;2023-06-10T08:29:32;4.95;;;4.57;;
16294;SDS011;8255;49.560;8.244;2023-06-10T08:33:07;4.75;;;4.53;;
16294;SDS011;8255;49.560;8.244;2023-06-10T08:35:26;4.70;;;4.30;;
16294;SDS011;8255;49.560;8.244;2023-06-10T08:37:53;4.25;;;3.95;;
16294;SDS011;8255;49.560;8.244;2023-06-10T08:40:19;4.57;;;4.38;;
16294;SDS011;8255;49.560;8.244;2023-06-10T08:42:48;5.07;;;4.68;;
16294;SDS011;8255;49.560;8.244;2023-06-10T08:45:17;4.85;;;4.25;;
16294;SDS011;8255;49.560;8.244;2023-06-10T08:47:44;4.97;;;4.53;;
16294;SDS011;8255;49.560;8.244;2023-06-10T08:50:11;4.80;;;4.50;;
16294;SDS011;8255;49.560;8.244;2023-06-10T08:52:37;4.65;;;4.25;;
16294;SDS011;8255;49.560;8.244;2023-06-10T08:55:09;4.40;;;4.20;;
16294;SDS011;8255;49.560;8.244;2023-06-10T08:57:36;4.55;;;4.25;;
